sensor_id;sensor_type;location;lat;lon;timestamp;P1;durP1;ratioP1;P2;durP2;ratioP2
65234;SDS011;51820;48.374;10.930;2023-09-08T00:00:57;10.52;;;5.72;;
65234;SDS011;51820;48.374;10.930;2023-09-08T00:03:25;10.90;;;5.57;;
65234;SDS011;51820;48.374;10.930;2023-09-08T00:05:54;15.27;;;5.47;;
65234;SDS011;51820;48.374;10.930;2023-09-08T00:08:22;10.65;;;5.70;;
65234;SDS011;51820;48.374;10.930;2023-09-08T00:10:52;11.77;;;5.88;;
65234;SDS011;51820;48.374;10.930;2023-09-08T00:13:21;10.27;;;5.93;;
65234;SDS011;51820;48.374;10.930;2023-09-08T00:15:50;11.50;;;5.80;;
65234;SDS011;51820;48.374;10.930;2023-09-08T00:18:18;12.77;;;5.20;;
65234;SDS011;51820;48.374;10.930;2023-09-08T00:20:47;12.65;;;5.35;;
65234;SDS011;51820;48.374;10.930;2023-09-08T00:23:15;15.40;;;5.97;;
65234;SDS011;51820;48.374;10.930;2023-09-08T00:25:44;11.35;;;5.40;;
65234;SDS011;51820;48.374;10.930;2023-09-08T00:28:14;13.20;;;6.18;;
65234;SDS011;51820;48.374;10.930;2023-09-08T00:30:42;12.63;;;5.63;;
65234;SDS011;51820;48.374;10.930;2023-09-08T00:33:10;11.68;;;5.82;;
65234;SDS011;51820;48.374;10.930;2023-09-08T00:35:43;16.27;;;6.22;;
65234;SDS011;51820;48.374;10.930;2023-09-08T00:38:12;9.48;;;5.32;;
65234;SDS011;51820;48.374;10.930;2023-09-08T00:40:40;15.32;;;5.60;;
65234;SDS011;51820;48.374;10.930;2023-09-08T00:43:09;9.80;;;5.33;;
65234;SDS011;51820;48.374;10.930;2023-09-08T00:45:40;11.07;;;5.50;;
65234;SDS011;51820;48.374;10.930;2023-09-08T00:48:10;9.52;;;5.28;;
65234;SDS011;51820;48.374;10.930;2023-09-08T00:50:39;12.10;;;5.80;;
65234;SDS011;51820;48.374;10.930;2023-09-08T00:53:08;10.63;;;5.85;;
65234;SDS011;51820;48.374;10.930;2023-09-08T00:55:36;10.63;;;5.77;;
65234;SDS011;51820;48.374;10.930;2023-09-08T00:58:07;10.60;;;5.65;;
65234;SDS011;51820;48.374;10.930;2023-09-08T01:00:35;12.82;;;6.00;;
65234;SDS011;51820;48.374;10.930;2023-09-08T01:03:05;12.05;;;5.75;;
65234;SDS011;51820;48.374;10.930;2023-09-08T01:05:34;12.30;;;5.78;;
65234;SDS011;51820;48.374;10.930;2023-09-08T01:08:03;13.70;;;5.80;;
65234;SDS011;51820;48.374;10.930;2023-09-08T01:10:32;10.90;;;5.13;;
65234;SDS011;51820;48.374;10.930;2023-09-08T01:13:01;10.07;;;5.93;;
65234;SDS011;51820;48.374;10.930;2023-09-08T01:15:29;14.93;;;5.80;;
65234;SDS011;51820;48.374;10.930;2023-09-08T01:17:59;11.18;;;5.82;;
65234;SDS011;51820;48.374;10.930;2023-09-08T01:20:30;11.40;;;6.00;;
65234;SDS011;51820;48.374;10.930;2023-09-08T01:23:17;10.85;;;5.60;;
65234;SDS011;51820;48.374;10.930;2023-09-08T01:25:52;11.18;;;5.78;;
65234;SDS011;51820;48.374;10.930;2023-09-08T01:28:22;10.80;;;5.80;;
65234;SDS011;51820;48.374;10.930;2023-09-08T01:30:52;12.95;;;6.07;;
65234;SDS011;51820;48.374;10.930;2023-09-08T01:33:21;14.10;;;5.87;;
65234;SDS011;51820;48.374;10.930;2023-09-08T01:35:50;11.15;;;5.70;;
65234;SDS011;51820;48.374;10.930;2023-09-08T01:38:20;10.20;;;5.85;;
65234;SDS011;51820;48.374;10.930;2023-09-08T01:40:51;9.13;;;5.38;;
65234;SDS011;51820;48.374;10.930;2023-09-08T01:43:19;12.38;;;6.10;;
65234;SDS011;51820;48.374;10.930;2023-09-08T01:45:48;10.53;;;5.50;;
65234;SDS011;51820;48.374;10.930;2023-09-08T01:48:16;11.73;;;5.70;;
65234;SDS011;51820;48.374;10.930;2023-09-08T01:50:46;13.73;;;6.60;;
65234;SDS011;51820;48.374;10.930;2023-09-08T01:53:14;12.70;;;5.68;;
65234;SDS011;51820;48.374;10.930;2023-09-08T01:55:43;11.43;;;5.57;;
65234;SDS011;51820;48.374;10.930;2023-09-08T01:58:13;12.67;;;5.87;;
65234;SDS011;51820;48.374;10.930;2023-09-08T02:00:42;12.07;;;6.13;;
65234;SDS011;51820;48.374;10.930;2023-09-08T02:03:10;14.07;;;6.50;;
65234;SDS011;51820;48.374;10.930;2023-09-08T02:05:39;10.65;;;5.88;;
65234;SDS011;51820;48.374;10.930;2023-09-08T02:08:08;12.57;;;6.50;;
65234;SDS011;51820;48.374;10.930;2023-09-08T02:10:38;14.03;;;5.93;;
65234;SDS011;51820;48.374;10.930;2023-09-08T02:13:07;13.45;;;6.30;;
65234;SDS011;51820;48.374;10.930;2023-09-08T02:15:37;12.70;;;7.15;;
65234;SDS011;51820;48.374;10.930;2023-09-08T02:18:06;11.80;;;6.13;;
65234;SDS011;51820;48.374;10.930;2023-09-08T02:20:35;14.55;;;6.55;;
65234;SDS011;51820;48.374;10.930;2023-09-08T02:23:04;12.37;;;6.00;;
65234;SDS011;51820;48.374;10.930;2023-09-08T02:25:34;11.98;;;6.07;;
65234;SDS011;51820;48.374;10.930;2023-09-08T02:28:03;12.75;;;6.78;;
65234;SDS011;51820;48.374;10.930;2023-09-08T02:30:32;14.23;;;6.32;;
65234;SDS011;51820;48.374;10.930;2023-09-08T02:33:02;12.30;;;6.43;;
65234;SDS011;51820;48.374;10.930;2023-09-08T02:35:35;12.07;;;6.57;;
65234;SDS011;51820;48.374;10.930;2023-09-08T02:38:04;12.25;;;6.53;;
65234;SDS011;51820;48.374;10.930;2023-09-08T02:40:32;15.40;;;6.68;;
65234;SDS011;51820;48.374;10.930;2023-09-08T02:43:03;11.00;;;6.20;;
65234;SDS011;51820;48.374;10.930;2023-09-08T02:45:32;12.20;;;6.55;;
65234;SDS011;51820;48.374;10.930;2023-09-08T02:48:04;12.97;;;6.17;;
65234;SDS011;51820;48.374;10.930;2023-09-08T02:50:33;12.07;;;6.68;;
65234;SDS011;51820;48.374;10.930;2023-09-08T02:53:02;11.90;;;6.25;;
65234;SDS011;51820;48.374;10.930;2023-09-08T02:55:32;11.02;;;6.07;;
65234;SDS011;51820;48.374;10.930;2023-09-08T02:58:02;11.88;;;6.55;;
65234;SDS011;51820;48.374;10.930;2023-09-08T03:00:31;12.10;;;6.20;;
65234;SDS011;51820;48.374;10.930;2023-09-08T03:03:00;12.13;;;6.20;;
65234;SDS011;51820;48.374;10.930;2023-09-08T03:05:31;13.60;;;6.90;;
65234;SDS011;51820;48.374;10.930;2023-09-08T03:08:00;10.98;;;6.20;;
65234;SDS011;51820;48.374;10.930;2023-09-08T03:10:29;11.90;;;6.75;;
65234;SDS011;51820;48.374;10.930;2023-09-08T03:13:00;12.30;;;6.40;;
65234;SDS011;51820;48.374;10.930;2023-09-08T03:15:29;15.23;;;6.50;;
65234;SDS011;51820;48.374;10.930;2023-09-08T03:17:59;12.45;;;6.22;;
65234;SDS011;51820;48.374;10.930;2023-09-08T03:20:27;10.73;;;6.00;;
65234;SDS011;51820;48.374;10.930;2023-09-08T03:22:57;12.10;;;6.28;;
65234;SDS011;51820;48.374;10.930;2023-09-08T03:25:26;10.87;;;5.83;;
65234;SDS011;51820;48.374;10.930;2023-09-08T03:27:55;12.93;;;6.82;;
65234;SDS011;51820;48.374;10.930;2023-09-08T03:30:24;12.15;;;6.57;;
65234;SDS011;51820;48.374;10.930;2023-09-08T03:32:53;13.85;;;7.10;;
65234;SDS011;51820;48.374;10.930;2023-09-08T03:35:22;14.57;;;6.25;;
65234;SDS011;51820;48.374;10.930;2023-09-08T03:37:50;12.00;;;6.23;;
65234;SDS011;51820;48.374;10.930;2023-09-08T03:40:20;13.18;;;6.40;;
65234;SDS011;51820;48.374;10.930;2023-09-08T03:42:49;14.57;;;6.18;;
65234;SDS011;51820;48.374;10.930;2023-09-08T03:45:18;11.95;;;6.18;;
65234;SDS011;51820;48.374;10.930;2023-09-08T03:47:47;11.85;;;5.90;;
65234;SDS011;51820;48.374;10.930;2023-09-08T03:50:16;12.70;;;6.23;;
65234;SDS011;51820;48.374;10.930;2023-09-08T03:52:45;14.75;;;6.60;;
65234;SDS011;51820;48.374;10.930;2023-09-08T03:55:13;14.05;;;6.75;;
65234;SDS011;51820;48.374;10.930;2023-09-08T03:57:45;11.48;;;5.57;;
65234;SDS011;51820;48.374;10.930;2023-09-08T04:00:14;14.15;;;6.13;;
65234;SDS011;51820;48.374;10.930;2023-09-08T04:02:48;12.40;;;5.63;;
65234;SDS011;51820;48.374;10.930;2023-09-08T04:05:17;12.35;;;5.68;;
65234;SDS011;51820;48.374;10.930;2023-09-08T04:07:47;15.40;;;5.38;;
65234;SDS011;51820;48.374;10.930;2023-09-08T04:10:16;11.00;;;5.72;;
65234;SDS011;51820;48.374;10.930;2023-09-08T04:12:48;12.13;;;5.70;;
65234;SDS011;51820;48.374;10.930;2023-09-08T04:15:17;11.63;;;5.03;;
65234;SDS011;51820;48.374;10.930;2023-09-08T04:17:45;11.73;;;5.15;;
65234;SDS011;51820;48.374;10.930;2023-09-08T04:20:14;22.48;;;5.82;;
65234;SDS011;51820;48.374;10.930;2023-09-08T04:22:43;10.98;;;5.85;;
65234;SDS011;51820;48.374;10.930;2023-09-08T04:25:11;14.55;;;6.72;;
65234;SDS011;51820;48.374;10.930;2023-09-08T04:27:39;11.83;;;6.13;;
65234;SDS011;51820;48.374;10.930;2023-09-08T04:30:10;15.27;;;5.90;;
65234;SDS011;51820;48.374;10.930;2023-09-08T04:32:39;14.85;;;5.70;;
65234;SDS011;51820;48.374;10.930;2023-09-08T04:35:08;13.05;;;6.57;;
65234;SDS011;51820;48.374;10.930;2023-09-08T04:37:36;11.65;;;6.10;;
65234;SDS011;51820;48.374;10.930;2023-09-08T04:40:06;11.47;;;5.67;;
65234;SDS011;51820;48.374;10.930;2023-09-08T04:42:35;12.77;;;5.72;;
65234;SDS011;51820;48.374;10.930;2023-09-08T04:45:06;10.77;;;5.95;;
65234;SDS011;51820;48.374;10.930;2023-09-08T04:47:37;16.05;;;5.90;;
65234;SDS011;51820;48.374;10.930;2023-09-08T04:50:05;13.27;;;6.05;;
65234;SDS011;51820;48.374;10.930;2023-09-08T04:52:35;12.87;;;6.10;;
65234;SDS011;51820;48.374;10.930;2023-09-08T04:55:04;11.13;;;5.63;;
65234;SDS011;51820;48.374;10.930;2023-09-08T04:57:33;11.88;;;6.78;;
65234;SDS011;51820;48.374;10.930;2023-09-08T05:00:03;13.50;;;7.03;;
65234;SDS011;51820;48.374;10.930;2023-09-08T05:02:31;12.70;;;6.82;;
65234;SDS011;51820;48.374;10.930;2023-09-08T05:05:03;11.03;;;5.90;;
65234;SDS011;51820;48.374;10.930;2023-09-08T05:07:32;10.88;;;5.90;;
65234;SDS011;51820;48.374;10.930;2023-09-08T05:10:03;14.73;;;6.10;;
65234;SDS011;51820;48.374;10.930;2023-09-08T05:12:34;12.30;;;6.07;;
65234;SDS011;51820;48.374;10.930;2023-09-08T05:15:02;11.02;;;5.90;;
65234;SDS011;51820;48.374;10.930;2023-09-08T05:17:36;10.77;;;5.77;;
65234;SDS011;51820;48.374;10.930;2023-09-08T05:20:07;14.60;;;6.22;;
65234;SDS011;51820;48.374;10.930;2023-09-08T05:22:36;12.20;;;6.13;;
65234;SDS011;51820;48.374;10.930;2023-09-08T05:25:06;11.75;;;6.25;;
65234;SDS011;51820;48.374;10.930;2023-09-08T05:27:34;14.02;;;6.88;;
65234;SDS011;51820;48.374;10.930;2023-09-08T05:30:03;15.20;;;6.17;;
65234;SDS011;51820;48.374;10.930;2023-09-08T05:32:34;13.95;;;7.05;;
65234;SDS011;51820;48.374;10.930;2023-09-08T05:35:15;14.65;;;7.20;;
65234;SDS011;51820;48.374;10.930;2023-09-08T05:41:37;12.52;;;7.07;;
65234;SDS011;51820;48.374;10.930;2023-09-08T05:44:06;11.47;;;6.60;;
65234;SDS011;51820;48.374;10.930;2023-09-08T05:46:35;17.90;;;7.07;;
65234;SDS011;51820;48.374;10.930;2023-09-08T05:49:04;14.43;;;6.85;;
65234;SDS011;51820;48.374;10.930;2023-09-08T05:51:36;13.13;;;7.05;;
65234;SDS011;51820;48.374;10.930;2023-09-08T05:54:08;15.27;;;7.10;;
65234;SDS011;51820;48.374;10.930;2023-09-08T05:56:41;12.63;;;7.13;;
65234;SDS011;51820;48.374;10.930;2023-09-08T05:59:20;14.07;;;7.30;;
65234;SDS011;51820;48.374;10.930;2023-09-08T06:02:01;13.07;;;7.40;;
65234;SDS011;51820;48.374;10.930;2023-09-08T06:04:30;13.60;;;7.13;;
65234;SDS011;51820;48.374;10.930;2023-09-08T06:07:02;12.43;;;7.22;;
65234;SDS011;51820;48.374;10.930;2023-09-08T06:09:32;18.70;;;7.97;;
65234;SDS011;51820;48.374;10.930;2023-09-08T06:12:00;17.67;;;7.47;;
65234;SDS011;51820;48.374;10.930;2023-09-08T06:14:29;16.98;;;7.10;;
65234;SDS011;51820;48.374;10.930;2023-09-08T06:16:59;12.80;;;7.28;;
65234;SDS011;51820;48.374;10.930;2023-09-08T06:19:28;14.18;;;7.28;;
65234;SDS011;51820;48.374;10.930;2023-09-08T06:21:57;40.37;;;24.00;;
65234;SDS011;51820;48.374;10.930;2023-09-08T06:24:27;59.13;;;28.90;;
65234;SDS011;51820;48.374;10.930;2023-09-08T06:27:03;44.70;;;23.25;;
65234;SDS011;51820;48.374;10.930;2023-09-08T06:29:33;17.38;;;9.10;;
65234;SDS011;51820;48.374;10.930;2023-09-08T06:32:05;13.25;;;7.70;;
65234;SDS011;51820;48.374;10.930;2023-09-08T06:34:34;14.63;;;7.70;;
65234;SDS011;51820;48.374;10.930;2023-09-08T06:37:03;14.25;;;7.15;;
65234;SDS011;51820;48.374;10.930;2023-09-08T06:39:34;12.30;;;7.35;;
65234;SDS011;51820;48.374;10.930;2023-09-08T06:42:03;15.25;;;7.30;;
65234;SDS011;51820;48.374;10.930;2023-09-08T06:44:33;13.63;;;7.65;;
65234;SDS011;51820;48.374;10.930;2023-09-08T06:47:03;12.50;;;7.23;;
65234;SDS011;51820;48.374;10.930;2023-09-08T06:49:34;15.13;;;8.07;;
65234;SDS011;51820;48.374;10.930;2023-09-08T06:52:04;14.10;;;7.70;;
65234;SDS011;51820;48.374;10.930;2023-09-08T06:54:46;14.95;;;7.38;;
65234;SDS011;51820;48.374;10.930;2023-09-08T06:57:17;15.52;;;8.13;;
65234;SDS011;51820;48.374;10.930;2023-09-08T06:59:46;14.97;;;7.53;;
65234;SDS011;51820;48.374;10.930;2023-09-08T07:02:14;12.98;;;7.10;;
65234;SDS011;51820;48.374;10.930;2023-09-08T07:04:43;13.48;;;7.50;;
65234;SDS011;51820;48.374;10.930;2023-09-08T07:07:12;13.00;;;7.30;;
65234;SDS011;51820;48.374;10.930;2023-09-08T07:09:41;14.07;;;8.25;;
65234;SDS011;51820;48.374;10.930;2023-09-08T07:12:11;16.60;;;7.40;;
65234;SDS011;51820;48.374;10.930;2023-09-08T07:14:41;13.07;;;7.68;;
65234;SDS011;51820;48.374;10.930;2023-09-08T07:17:10;15.88;;;7.45;;
65234;SDS011;51820;48.374;10.930;2023-09-08T07:19:38;13.23;;;7.75;;
65234;SDS011;51820;48.374;10.930;2023-09-08T07:22:07;15.93;;;7.43;;
65234;SDS011;51820;48.374;10.930;2023-09-08T07:24:35;16.20;;;7.17;;
65234;SDS011;51820;48.374;10.930;2023-09-08T07:27:04;24.50;;;14.52;;
65234;SDS011;51820;48.374;10.930;2023-09-08T07:29:34;20.50;;;12.50;;
65234;SDS011;51820;48.374;10.930;2023-09-08T07:32:03;37.55;;;20.60;;
65234;SDS011;51820;48.374;10.930;2023-09-08T07:34:32;17.02;;;9.70;;
65234;SDS011;51820;48.374;10.930;2023-09-08T07:37:01;13.87;;;8.03;;
65234;SDS011;51820;48.374;10.930;2023-09-08T07:39:30;13.13;;;8.52;;
65234;SDS011;51820;48.374;10.930;2023-09-08T07:41:59;12.75;;;7.95;;
65234;SDS011;51820;48.374;10.930;2023-09-08T07:44:28;18.58;;;8.25;;
65234;SDS011;51820;48.374;10.930;2023-09-08T07:46:58;13.98;;;8.00;;
65234;SDS011;51820;48.374;10.930;2023-09-08T07:49:26;16.40;;;7.50;;
65234;SDS011;51820;48.374;10.930;2023-09-08T07:51:58;14.65;;;8.20;;
65234;SDS011;51820;48.374;10.930;2023-09-08T07:54:26;11.90;;;8.07;;
65234;SDS011;51820;48.374;10.930;2023-09-08T07:56:55;13.70;;;8.00;;
65234;SDS011;51820;48.374;10.930;2023-09-08T07:59:23;14.88;;;8.10;;
65234;SDS011;51820;48.374;10.930;2023-09-08T08:01:52;15.17;;;8.10;;
65234;SDS011;51820;48.374;10.930;2023-09-08T08:04:22;14.85;;;8.05;;
65234;SDS011;51820;48.374;10.930;2023-09-08T08:06:50;21.42;;;8.25;;
65234;SDS011;51820;48.374;10.930;2023-09-08T08:09:18;14.18;;;8.07;;
65234;SDS011;51820;48.374;10.930;2023-09-08T08:11:47;13.20;;;7.93;;
65234;SDS011;51820;48.374;10.930;2023-09-08T08:14:15;14.80;;;7.90;;
65234;SDS011;51820;48.374;10.930;2023-09-08T08:16:44;13.50;;;7.88;;
65234;SDS011;51820;48.374;10.930;2023-09-08T08:19:12;14.77;;;7.32;;
65234;SDS011;51820;48.374;10.930;2023-09-08T08:21:42;13.65;;;7.93;;
65234;SDS011;51820;48.374;10.930;2023-09-08T08:24:10;11.63;;;7.18;;
65234;SDS011;51820;48.374;10.930;2023-09-08T08:26:41;13.17;;;7.57;;
65234;SDS011;51820;48.374;10.930;2023-09-08T08:29:10;12.98;;;7.40;;
65234;SDS011;51820;48.374;10.930;2023-09-08T08:31:38;12.45;;;7.57;;
65234;SDS011;51820;48.374;10.930;2023-09-08T08:34:06;12.50;;;7.25;;
65234;SDS011;51820;48.374;10.930;2023-09-08T08:36:35;12.98;;;7.95;;
65234;SDS011;51820;48.374;10.930;2023-09-08T08:39:05;12.70;;;7.10;;
65234;SDS011;51820;48.374;10.930;2023-09-08T08:41:33;13.10;;;7.00;;
65234;SDS011;51820;48.374;10.930;2023-09-08T08:44:05;16.83;;;7.10;;
65234;SDS011;51820;48.374;10.930;2023-09-08T08:46:34;12.55;;;7.07;;
65234;SDS011;51820;48.374;10.930;2023-09-08T08:49:04;15.75;;;7.90;;
65234;SDS011;51820;48.374;10.930;2023-09-08T08:51:34;15.93;;;7.73;;
65234;SDS011;51820;48.374;10.930;2023-09-08T08:54:03;9.90;;;6.10;;
65234;SDS011;51820;48.374;10.930;2023-09-08T08:56:33;12.27;;;6.95;;
65234;SDS011;51820;48.374;10.930;2023-09-08T08:59:03;12.55;;;6.80;;
65234;SDS011;51820;48.374;10.930;2023-09-08T09:01:32;13.80;;;7.05;;
65234;SDS011;51820;48.374;10.930;2023-09-08T09:04:01;13.50;;;6.47;;
65234;SDS011;51820;48.374;10.930;2023-09-08T09:06:29;11.43;;;5.65;;
65234;SDS011;51820;48.374;10.930;2023-09-08T09:08:59;11.73;;;6.47;;
65234;SDS011;51820;48.374;10.930;2023-09-08T09:11:27;13.13;;;7.82;;
65234;SDS011;51820;48.374;10.930;2023-09-08T09:13:58;12.70;;;7.20;;
65234;SDS011;51820;48.374;10.930;2023-09-08T09:16:27;11.63;;;6.70;;
65234;SDS011;51820;48.374;10.930;2023-09-08T09:18:55;11.52;;;7.32;;
65234;SDS011;51820;48.374;10.930;2023-09-08T09:21:40;13.10;;;6.22;;
65234;SDS011;51820;48.374;10.930;2023-09-08T09:24:13;12.25;;;6.55;;
65234;SDS011;51820;48.374;10.930;2023-09-08T09:26:45;11.35;;;6.80;;
65234;SDS011;51820;48.374;10.930;2023-09-08T09:29:15;14.87;;;6.20;;
65234;SDS011;51820;48.374;10.930;2023-09-08T09:31:50;11.18;;;6.25;;
65234;SDS011;51820;48.374;10.930;2023-09-08T09:34:20;10.55;;;6.30;;
65234;SDS011;51820;48.374;10.930;2023-09-08T09:36:48;13.32;;;6.18;;
65234;SDS011;51820;48.374;10.930;2023-09-08T09:39:17;11.82;;;6.15;;
65234;SDS011;51820;48.374;10.930;2023-09-08T09:41:46;12.83;;;6.30;;
65234;SDS011;51820;48.374;10.930;2023-09-08T09:44:15;12.95;;;6.20;;
65234;SDS011;51820;48.374;10.930;2023-09-08T09:46:44;11.05;;;6.13;;
65234;SDS011;51820;48.374;10.930;2023-09-08T09:49:12;11.25;;;6.38;;
65234;SDS011;51820;48.374;10.930;2023-09-08T09:51:42;11.75;;;6.00;;
65234;SDS011;51820;48.374;10.930;2023-09-08T09:54:11;12.27;;;6.30;;
65234;SDS011;51820;48.374;10.930;2023-09-08T09:56:40;13.95;;;8.35;;
65234;SDS011;51820;48.374;10.930;2023-09-08T09:59:12;12.60;;;6.90;;
65234;SDS011;51820;48.374;10.930;2023-09-08T10:01:43;12.10;;;6.45;;
65234;SDS011;51820;48.374;10.930;2023-09-08T10:04:12;13.25;;;7.82;;
65234;SDS011;51820;48.374;10.930;2023-09-08T10:06:42;14.43;;;5.77;;
65234;SDS011;51820;48.374;10.930;2023-09-08T10:09:12;15.70;;;5.75;;
65234;SDS011;51820;48.374;10.930;2023-09-08T10:11:43;9.80;;;5.47;;
65234;SDS011;51820;48.374;10.930;2023-09-08T10:14:15;13.57;;;5.45;;
65234;SDS011;51820;48.374;10.930;2023-09-08T10:16:45;11.50;;;5.40;;
65234;SDS011;51820;48.374;10.930;2023-09-08T10:19:16;13.73;;;4.90;;
65234;SDS011;51820;48.374;10.930;2023-09-08T10:21:45;13.70;;;5.35;;
65234;SDS011;51820;48.374;10.930;2023-09-08T10:24:15;11.13;;;5.15;;
65234;SDS011;51820;48.374;10.930;2023-09-08T10:26:51;11.63;;;5.63;;
65234;SDS011;51820;48.374;10.930;2023-09-08T10:29:25;14.60;;;5.93;;
65234;SDS011;51820;48.374;10.930;2023-09-08T10:31:56;16.13;;;5.97;;
65234;SDS011;51820;48.374;10.930;2023-09-08T10:34:25;12.38;;;5.75;;
65234;SDS011;51820;48.374;10.930;2023-09-08T10:36:54;12.85;;;6.25;;
65234;SDS011;51820;48.374;10.930;2023-09-08T10:39:27;10.43;;;5.70;;
65234;SDS011;51820;48.374;10.930;2023-09-08T10:48:17;15.07;;;6.13;;
65234;SDS011;51820;48.374;10.930;2023-09-08T10:50:47;14.98;;;5.75;;
65234;SDS011;51820;48.374;10.930;2023-09-08T10:53:16;14.27;;;5.93;;
65234;SDS011;51820;48.374;10.930;2023-09-08T10:55:45;12.23;;;6.25;;
65234;SDS011;51820;48.374;10.930;2023-09-08T10:58:28;11.67;;;5.63;;
65234;SDS011;51820;48.374;10.930;2023-09-08T11:00:59;14.43;;;6.18;;
65234;SDS011;51820;48.374;10.930;2023-09-08T11:03:42;15.60;;;5.90;;
65234;SDS011;51820;48.374;10.930;2023-09-08T11:06:15;17.38;;;6.10;;
65234;SDS011;51820;48.374;10.930;2023-09-08T11:08:44;19.80;;;6.28;;
65234;SDS011;51820;48.374;10.930;2023-09-08T11:11:14;12.23;;;5.33;;
65234;SDS011;51820;48.374;10.930;2023-09-08T11:13:43;13.63;;;5.55;;
65234;SDS011;51820;48.374;10.930;2023-09-08T11:16:13;16.52;;;6.47;;
65234;SDS011;51820;48.374;10.930;2023-09-08T11:18:44;14.38;;;5.85;;
65234;SDS011;51820;48.374;10.930;2023-09-08T11:21:12;17.23;;;6.50;;
65234;SDS011;51820;48.374;10.930;2023-09-08T11:23:40;13.60;;;5.43;;
65234;SDS011;51820;48.374;10.930;2023-09-08T11:26:09;12.23;;;6.05;;
65234;SDS011;51820;48.374;10.930;2023-09-08T11:28:40;11.18;;;5.80;;
65234;SDS011;51820;48.374;10.930;2023-09-08T11:31:10;12.20;;;6.18;;
65234;SDS011;51820;48.374;10.930;2023-09-08T11:33:39;12.48;;;5.80;;
65234;SDS011;51820;48.374;10.930;2023-09-08T11:36:12;12.77;;;5.33;;
65234;SDS011;51820;48.374;10.930;2023-09-08T11:38:43;11.40;;;5.82;;
65234;SDS011;51820;48.374;10.930;2023-09-08T11:41:12;16.23;;;5.88;;
65234;SDS011;51820;48.374;10.930;2023-09-08T11:43:40;14.73;;;5.55;;
65234;SDS011;51820;48.374;10.930;2023-09-08T11:46:08;15.10;;;5.93;;
65234;SDS011;51820;48.374;10.930;2023-09-08T11:48:38;14.03;;;5.97;;
65234;SDS011;51820;48.374;10.930;2023-09-08T11:51:07;9.13;;;5.30;;
65234;SDS011;51820;48.374;10.930;2023-09-08T11:53:37;15.82;;;5.55;;
65234;SDS011;51820;48.374;10.930;2023-09-08T11:56:05;10.90;;;4.93;;
65234;SDS011;51820;48.374;10.930;2023-09-08T11:58:35;8.95;;;5.05;;
65234;SDS011;51820;48.374;10.930;2023-09-08T12:01:05;12.37;;;5.40;;
65234;SDS011;51820;48.374;10.930;2023-09-08T12:03:33;13.07;;;5.68;;
65234;SDS011;51820;48.374;10.930;2023-09-08T12:06:02;9.65;;;4.93;;
65234;SDS011;51820;48.374;10.930;2023-09-08T12:08:30;13.80;;;5.47;;
65234;SDS011;51820;48.374;10.930;2023-09-08T12:11:01;8.45;;;5.00;;
65234;SDS011;51820;48.374;10.930;2023-09-08T12:13:30;8.70;;;4.83;;
65234;SDS011;51820;48.374;10.930;2023-09-08T12:15:59;9.40;;;5.07;;
65234;SDS011;51820;48.374;10.930;2023-09-08T12:18:37;11.00;;;5.07;;
65234;SDS011;51820;48.374;10.930;2023-09-08T12:21:06;8.73;;;5.05;;
65234;SDS011;51820;48.374;10.930;2023-09-08T12:23:34;13.25;;;5.75;;
65234;SDS011;51820;48.374;10.930;2023-09-08T12:26:16;15.10;;;5.40;;
65234;SDS011;51820;48.374;10.930;2023-09-08T12:28:45;16.38;;;5.50;;
65234;SDS011;51820;48.374;10.930;2023-09-08T12:31:14;13.13;;;5.40;;
65234;SDS011;51820;48.374;10.930;2023-09-08T12:33:42;8.50;;;4.70;;
65234;SDS011;51820;48.374;10.930;2023-09-08T12:36:12;12.30;;;5.13;;
65234;SDS011;51820;48.374;10.930;2023-09-08T12:38:40;12.73;;;5.50;;
65234;SDS011;51820;48.374;10.930;2023-09-08T12:41:08;13.63;;;5.13;;
65234;SDS011;51820;48.374;10.930;2023-09-08T12:43:38;11.13;;;5.82;;
65234;SDS011;51820;48.374;10.930;2023-09-08T12:46:06;11.88;;;5.20;;
65234;SDS011;51820;48.374;10.930;2023-09-08T12:48:34;11.85;;;5.25;;
65234;SDS011;51820;48.374;10.930;2023-09-08T12:51:03;9.20;;;5.30;;
65234;SDS011;51820;48.374;10.930;2023-09-08T12:53:32;10.80;;;5.35;;
65234;SDS011;51820;48.374;10.930;2023-09-08T12:56:02;12.18;;;5.50;;
65234;SDS011;51820;48.374;10.930;2023-09-08T12:58:30;15.27;;;5.72;;
65234;SDS011;51820;48.374;10.930;2023-09-08T13:01:02;10.40;;;5.20;;
65234;SDS011;51820;48.374;10.930;2023-09-08T13:03:33;11.30;;;4.93;;
65234;SDS011;51820;48.374;10.930;2023-09-08T13:06:01;30.52;;;8.25;;
65234;SDS011;51820;48.374;10.930;2023-09-08T13:08:31;14.50;;;8.60;;
65234;SDS011;51820;48.374;10.930;2023-09-08T13:10:59;11.57;;;6.78;;
65234;SDS011;51820;48.374;10.930;2023-09-08T13:13:28;12.80;;;6.40;;
65234;SDS011;51820;48.374;10.930;2023-09-08T13:15:57;20.83;;;6.37;;
65234;SDS011;51820;48.374;10.930;2023-09-08T13:18:27;12.13;;;5.97;;
65234;SDS011;51820;48.374;10.930;2023-09-08T13:21:02;12.65;;;5.95;;
65234;SDS011;51820;48.374;10.930;2023-09-08T13:23:30;14.55;;;5.95;;
65234;SDS011;51820;48.374;10.930;2023-09-08T13:25:58;16.52;;;5.53;;
65234;SDS011;51820;48.374;10.930;2023-09-08T13:28:27;19.53;;;6.07;;
65234;SDS011;51820;48.374;10.930;2023-09-08T13:30:55;19.35;;;6.28;;
65234;SDS011;51820;48.374;10.930;2023-09-08T13:33:23;10.43;;;5.57;;
65234;SDS011;51820;48.374;10.930;2023-09-08T13:35:53;12.02;;;5.95;;
65234;SDS011;51820;48.374;10.930;2023-09-08T13:38:21;12.73;;;6.45;;
65234;SDS011;51820;48.374;10.930;2023-09-08T13:40:50;13.03;;;5.73;;
65234;SDS011;51820;48.374;10.930;2023-09-08T13:43:19;12.02;;;5.90;;
65234;SDS011;51820;48.374;10.930;2023-09-08T13:45:48;13.70;;;6.13;;
65234;SDS011;51820;48.374;10.930;2023-09-08T13:48:16;10.32;;;5.68;;
65234;SDS011;51820;48.374;10.930;2023-09-08T13:50:45;12.40;;;5.90;;
65234;SDS011;51820;48.374;10.930;2023-09-08T13:53:16;12.27;;;5.97;;
65234;SDS011;51820;48.374;10.930;2023-09-08T13:55:46;12.30;;;5.75;;
65234;SDS011;51820;48.374;10.930;2023-09-08T13:58:17;11.10;;;5.82;;
65234;SDS011;51820;48.374;10.930;2023-09-08T14:00:46;11.73;;;5.80;;
65234;SDS011;51820;48.374;10.930;2023-09-08T14:03:19;11.50;;;5.80;;
65234;SDS011;51820;48.374;10.930;2023-09-08T14:05:49;18.63;;;6.30;;
65234;SDS011;51820;48.374;10.930;2023-09-08T14:08:21;15.55;;;5.50;;
65234;SDS011;51820;48.374;10.930;2023-09-08T14:10:52;13.20;;;6.05;;
65234;SDS011;51820;48.374;10.930;2023-09-08T14:13:35;21.70;;;6.53;;
65234;SDS011;51820;48.374;10.930;2023-09-08T14:16:04;15.57;;;6.28;;
65234;SDS011;51820;48.374;10.930;2023-09-08T14:18:33;11.67;;;5.20;;
65234;SDS011;51820;48.374;10.930;2023-09-08T14:21:01;18.30;;;6.22;;
65234;SDS011;51820;48.374;10.930;2023-09-08T14:23:31;15.35;;;6.10;;
65234;SDS011;51820;48.374;10.930;2023-09-08T14:26:01;13.95;;;5.80;;
65234;SDS011;51820;48.374;10.930;2023-09-08T14:28:30;18.13;;;6.35;;
65234;SDS011;51820;48.374;10.930;2023-09-08T14:30:59;14.23;;;6.93;;
65234;SDS011;51820;48.374;10.930;2023-09-08T14:33:27;16.30;;;6.47;;
65234;SDS011;51820;48.374;10.930;2023-09-08T14:35:55;18.67;;;6.47;;
65234;SDS011;51820;48.374;10.930;2023-09-08T14:38:24;19.52;;;7.72;;
65234;SDS011;51820;48.374;10.930;2023-09-08T14:40:57;20.30;;;6.95;;
65234;SDS011;51820;48.374;10.930;2023-09-08T14:43:27;17.50;;;7.13;;
65234;SDS011;51820;48.374;10.930;2023-09-08T14:45:56;14.07;;;6.53;;